Time,TemperatureF,DewpointF,PressureIn,WindDirection,WindDirectionDegrees,WindSpeedMPH,WindSpeedGustMPH,Humidity,HourlyPrecipIn,Conditions,Clouds,dailyrainin,SolarRadiationWatts/m^2,SoftwareType,DateUTC
2014-03-08 00:01:00,41.9,36.0,30.04,NW,317,9.0,15.0,79,0.04,,,0.98,0,weatherlink.com 1.10,2014-03-08 05:01:00,
2014-03-08 00:16:00,41.9,36.0,30.04,WNW,298,9.0,17.0,79,0.05,,,0.99,0,weatherlink.com 1.10,2014-03-08 05:16:00,
2014-03-08 00:31:00,41.8,36.0,30.04,NW,325,14.0,15.0,79,0.04,,,1.00,0,weatherlink.com 1.10,2014-03-08 05:31:00,
2014-03-08 00:46:00,42.2,36.0,30.04,WNW,303,10.0,16.0,78,0.06,,,1.02,0,weatherlink.com 1.10,2014-03-08 05:46:00,
2014-03-08 01:01:00,42.2,36.0,30.04,NW,306,6.0,15.0,78,0.05,,,1.03,0,weatherlink.com 1.10,2014-03-08 06:01:00,
2014-03-08 01:16:00,41.4,35.0,30.05,NW,313,6.0,10.0,79,0.05,,,1.04,0,weatherlink.com 1.10,2014-03-08 06:16:00,
2014-03-08 01:31:00,41.4,36.0,30.05,WNW,293,8.0,11.0,80,0.05,,,1.05,0,weatherlink.com 1.10,2014-03-08 06:31:00,
2014-03-08 01:46:00,41.5,36.0,30.05,WNW,299,5.0,12.0,80,0.04,,,1.06,0,weatherlink.com 1.10,2014-03-08 06:46:00,
2014-03-08 02:01:00,41.3,36.0,30.05,NW,322,6.0,13.0,80,0.04,,,1.07,0,weatherlink.com 1.10,2014-03-08 07:01:00,
2014-03-08 02:16:00,41.1,36.0,30.04,West,278,7.0,10.0,81,0.04,,,1.08,0,weatherlink.com 1.10,2014-03-08 07:16:00,
2014-03-08 02:31:00,41.2,36.0,30.03,WNW,302,7.0,11.0,81,0.04,,,1.09,0,weatherlink.com 1.10,2014-03-08 07:31:00,
2014-03-08 02:46:00,41.5,36.0,30.03,NW,317,6.0,11.0,80,0.04,,,1.10,0,weatherlink.com 1.10,2014-03-08 07:46:00,
2014-03-08 03:01:00,41.3,36.0,30.04,NW,315,7.0,13.0,81,0.03,,,1.10,0,weatherlink.com 1.10,2014-03-08 08:01:00,
2014-03-08 03:16:00,40.9,36.0,30.04,NW,314,4.0,12.0,81,0.03,,,1.11,0,weatherlink.com 1.10,2014-03-08 08:16:00,
2014-03-08 03:31:00,41.0,36.0,30.04,WNW,288,8.0,11.0,82,0.03,,,1.12,0,weatherlink.com 1.10,2014-03-08 08:31:00,
2014-03-08 03:46:00,41.1,36.0,30.04,NW,306,9.0,12.0,81,0.03,,,1.13,0,weatherlink.com 1.10,2014-03-08 08:46:00,
2014-03-08 04:01:00,40.8,36.0,30.04,NW,325,8.0,10.0,82,0.03,,,1.13,0,weatherlink.com 1.10,2014-03-08 09:01:00,
2014-03-08 04:16:00,41.1,36.0,30.05,WNW,300,8.0,12.0,82,0.03,,,1.14,0,weatherlink.com 1.10,2014-03-08 09:16:00,
2014-03-08 04:31:00,41.4,36.0,30.05,NW,312,5.0,14.0,81,0.03,,,1.15,0,weatherlink.com 1.10,2014-03-08 09:31:00,
2014-03-08 04:46:00,41.6,36.0,30.05,NW,309,10.0,13.0,80,0.03,,,1.16,0,weatherlink.com 1.10,2014-03-08 09:46:00,
2014-03-08 05:01:00,41.5,36.0,30.06,NW,317,6.0,15.0,81,0.03,,,1.16,0,weatherlink.com 1.10,2014-03-08 10:01:00,
2014-03-08 05:16:00,41.3,36.0,30.06,WNW,302,8.0,13.0,81,0.03,,,1.17,0,weatherlink.com 1.10,2014-03-08 10:16:00,
2014-03-08 05:31:00,41.3,36.0,30.06,NW,307,8.0,12.0,82,0.03,,,1.18,0,weatherlink.com 1.10,2014-03-08 10:31:00,
2014-03-08 05:46:00,41.5,36.0,30.06,WNW,302,6.0,15.0,81,0.02,,,1.18,0,weatherlink.com 1.10,2014-03-08 10:46:00,
2014-03-08 06:01:00,40.9,36.0,30.07,NW,308,6.0,17.0,82,0.03,,,1.19,0,weatherlink.com 1.10,2014-03-08 11:01:00,
2014-03-08 06:16:00,41.3,36.0,30.07,NW,315,4.0,13.0,82,0.02,,,1.19,0,weatherlink.com 1.10,2014-03-08 11:16:00,
2014-03-08 06:31:00,41.4,36.0,30.07,NW,306,7.0,10.0,82,0.02,,,1.20,0,weatherlink.com 1.10,2014-03-08 11:31:00,
2014-03-08 06:46:00,41.6,37.0,30.07,West,277,12.0,14.0,82,0.02,,,1.20,0,weatherlink.com 1.10,2014-03-08 11:46:00,
2014-03-08 07:01:00,41.9,37.0,30.08,NW,316,9.0,15.0,81,0.01,,,1.20,14,weatherlink.com 1.10,2014-03-08 12:01:00,
2014-03-08 07:16:00,42.0,36.0,30.08,NW,308,7.0,16.0,80,0.00,,,1.20,28,weatherlink.com 1.10,2014-03-08 12:16:00,
2014-03-08 07:31:00,42.3,36.0,30.09,WNW,291,7.0,15.0,79,0.00,,,1.20,40,weatherlink.com 1.10,2014-03-08 12:31:00,
2014-03-08 07:46:00,42.2,36.0,30.10,WNW,297,6.0,13.0,79,0.00,,,1.20,65,weatherlink.com 1.10,2014-03-08 12:46:00,
2014-03-08 08:01:00,42.9,36.0,30.10,NW,319,7.0,13.0,78,0.00,,,1.20,100,weatherlink.com 1.10,2014-03-08 13:01:00,
2014-03-08 08:16:00,43.3,37.0,30.10,NW,313,13.0,17.0,77,0.00,,,1.20,91,weatherlink.com 1.10,2014-03-08 13:16:00,
2014-03-08 08:31:00,43.2,36.0,30.10,NW,311,8.0,16.0,77,0.00,,,1.20,128,weatherlink.com 1.10,2014-03-08 13:31:00,
2014-03-08 08:46:00,43.4,37.0,30.10,WNW,296,10.0,19.0,77,0.00,,,1.20,30,weatherlink.com 1.10,2014-03-08 13:46:00,
2014-03-08 09:01:00,43.7,37.0,30.11,NNW,327,11.0,16.0,76,0.00,,,1.20,179,weatherlink.com 1.10,2014-03-08 14:01:00,
2014-03-08 09:16:00,44.0,37.0,30.11,NW,304,12.0,15.0,75,0.00,,,1.20,420,weatherlink.com 1.10,2014-03-08 14:16:00,
2014-03-08 09:31:00,44.6,37.0,30.11,NW,309,6.0,13.0,74,0.00,,,1.20,362,weatherlink.com 1.10,2014-03-08 14:31:00,
2014-03-08 09:46:00,45.3,37.0,30.11,NNW,344,5.0,12.0,73,0.00,,,1.20,411,weatherlink.com 1.10,2014-03-08 14:46:00,
2014-03-08 10:01:00,45.4,37.0,30.11,WNW,289,6.0,9.0,73,0.00,,,1.20,545,weatherlink.com 1.10,2014-03-08 15:01:00,
2014-03-08 10:16:00,46.1,38.0,30.11,NW,313,4.0,6.0,72,0.00,,,1.20,573,weatherlink.com 1.10,2014-03-08 15:16:00,
2014-03-08 10:32:00,47.0,37.0,30.11,NNW,341,6.0,15.0,69,0.00,,,1.20,650,weatherlink.com 1.10,2014-03-08 15:32:00,
2014-03-08 10:47:00,47.6,37.0,30.11,North,351,2.0,11.0,66,0.00,,,1.20,689,weatherlink.com 1.10,2014-03-08 15:47:00,
2014-03-08 11:02:00,48.4,36.0,30.10,NW,320,3.0,11.0,63,0.00,,,1.20,710,weatherlink.com 1.10,2014-03-08 16:02:00,
2014-03-08 11:17:00,49.2,36.0,30.11,NNW,335,3.0,11.0,60,0.00,,,0.00,737,weatherlink.com 1.10,2014-03-08 16:17:00,
2014-03-08 11:32:00,49.7,35.0,30.11,NNW,338,3.0,13.0,57,0.00,,,0.00,749,weatherlink.com 1.10,2014-03-08 16:32:00,
2014-03-08 11:47:00,50.1,35.0,30.11,NNW,340,4.0,13.0,56,0.00,,,0.00,775,weatherlink.com 1.10,2014-03-08 16:47:00,
2014-03-08 12:02:00,50.5,34.0,30.11,West,281,7.0,15.0,54,0.00,,,0.00,765,weatherlink.com 1.10,2014-03-08 17:02:00,
2014-03-08 12:17:00,51.0,35.0,30.09,NW,325,2.0,9.0,54,0.00,,,0.00,763,weatherlink.com 1.10,2014-03-08 17:17:00,
2014-03-08 12:32:00,51.2,35.0,30.09,NNW,333,4.0,10.0,54,0.00,,,0.00,729,weatherlink.com 1.10,2014-03-08 17:32:00,
2014-03-08 12:47:00,51.9,34.0,30.08,North,360,5.0,11.0,50,0.00,,,0.00,696,weatherlink.com 1.10,2014-03-08 17:47:00,
2014-03-08 13:02:00,52.3,33.0,30.08,NNW,340,4.0,12.0,49,0.00,,,0.00,591,weatherlink.com 1.10,2014-03-08 18:02:00,
2014-03-08 13:17:00,52.1,32.0,30.07,NW,314,8.0,12.0,47,0.00,,,0.00,798,weatherlink.com 1.10,2014-03-08 18:17:00,
2014-03-08 13:32:00,52.9,31.0,30.07,WNW,289,7.0,12.0,44,0.00,,,0.00,765,weatherlink.com 1.10,2014-03-08 18:32:00,
2014-03-08 13:47:00,53.0,30.0,30.05,NW,311,5.0,14.0,42,0.00,,,0.00,737,weatherlink.com 1.10,2014-03-08 18:47:00,
2014-03-08 14:02:00,53.6,31.0,30.05,West,279,5.0,13.0,42,0.00,,,0.00,712,weatherlink.com 1.10,2014-03-08 19:02:00,
2014-03-08 14:17:00,53.6,30.0,30.04,NW,307,2.0,12.0,40,0.00,,,0.00,686,weatherlink.com 1.10,2014-03-08 19:17:00,
2014-03-08 14:32:00,54.1,29.0,30.03,WNW,287,3.0,15.0,39,0.00,,,0.00,657,weatherlink.com 1.10,2014-03-08 19:32:00,
2014-03-08 14:47:00,54.6,29.0,30.03,NNW,340,5.0,10.0,38,0.00,,,0.00,628,weatherlink.com 1.10,2014-03-08 19:47:00,
2014-03-08 15:02:00,54.7,29.0,30.04,WNW,303,4.0,14.0,38,0.00,,,0.00,584,weatherlink.com 1.10,2014-03-08 20:02:00,
2014-03-08 15:17:00,54.5,29.0,30.04,NW,309,7.0,14.0,38,0.00,,,0.00,547,weatherlink.com 1.10,2014-03-08 20:17:00,
2014-03-08 15:32:00,54.8,29.0,30.04,NW,315,5.0,11.0,37,0.00,,,0.00,44,weatherlink.com 1.10,2014-03-08 20:32:00,
2014-03-08 15:47:00,55.0,28.0,30.03,WNW,301,5.0,12.0,36,0.00,,,0.00,42,weatherlink.com 1.10,2014-03-08 20:47:00,
2014-03-08 16:02:00,55.0,30.0,30.03,WNW,286,2.0,14.0,38,0.00,,,0.00,40,weatherlink.com 1.10,2014-03-08 21:02:00,
2014-03-08 16:18:00,55.5,30.0,30.03,West,280,3.0,12.0,38,0.00,,,0.00,40,weatherlink.com 1.10,2014-03-08 21:18:00,
2014-03-08 16:33:00,55.3,29.0,30.03,West,273,3.0,11.0,36,0.00,,,0.00,327,weatherlink.com 1.10,2014-03-08 21:33:00,
2014-03-08 16:48:00,55.6,29.0,30.03,WNW,282,5.0,11.0,37,0.00,,,0.00,276,weatherlink.com 1.10,2014-03-08 21:48:00,
2014-03-08 17:03:00,55.5,29.0,30.03,West,273,6.0,10.0,37,0.00,,,0.00,227,weatherlink.com 1.10,2014-03-08 22:03:00,
2014-03-08 17:18:00,55.2,29.0,30.03,WNW,302,2.0,8.0,37,0.00,,,0.00,176,weatherlink.com 1.10,2014-03-08 22:18:00,
2014-03-08 17:33:00,55.0,30.0,30.04,WNW,290,5.0,9.0,38,0.00,,,0.00,118,weatherlink.com 1.10,2014-03-08 22:33:00,
2014-03-08 17:48:00,54.6,31.0,30.05,NW,312,7.0,10.0,40,0.00,,,0.00,70,weatherlink.com 1.10,2014-03-08 22:48:00,
2014-03-08 18:03:00,53.7,30.0,30.05,NW,311,3.0,11.0,41,0.00,,,0.00,30,weatherlink.com 1.10,2014-03-08 23:03:00,
2014-03-08 18:18:00,52.8,29.0,30.05,NW,316,5.0,11.0,41,0.00,,,0.00,11,weatherlink.com 1.10,2014-03-08 23:18:00,
2014-03-08 18:33:00,51.5,29.0,30.05,NW,313,7.0,11.0,42,0.00,,,0.00,0,weatherlink.com 1.10,2014-03-08 23:33:00,
2014-03-08 18:48:00,50.7,29.0,30.05,NW,309,7.0,8.0,43,0.00,,,0.00,0,weatherlink.com 1.10,2014-03-08 23:48:00,
2014-03-08 19:03:00,50.1,29.0,30.05,NW,306,4.0,11.0,45,0.00,,,0.00,0,weatherlink.com 1.10,2014-03-09 00:03:00,
2014-03-08 19:18:00,49.6,29.0,30.05,NW,313,7.0,10.0,46,0.00,,,0.00,0,weatherlink.com 1.10,2014-03-09 00:18:00,
2014-03-08 19:33:00,49.3,30.0,30.05,NW,319,17.0,19.0,47,0.00,,,0.00,0,weatherlink.com 1.10,2014-03-09 00:33:00,
2014-03-08 19:48:00,48.6,29.0,30.06,West,279,5.0,10.0,47,0.00,,,0.00,0,weatherlink.com 1.10,2014-03-09 00:48:00,
2014-03-08 20:03:00,48.5,29.0,30.06,West,266,0.0,9.0,48,0.00,,,0.00,0,weatherlink.com 1.10,2014-03-09 01:03:00,
2014-03-08 20:18:00,47.9,29.0,30.05,WNW,292,3.0,9.0,49,0.00,,,0.00,0,weatherlink.com 1.10,2014-03-09 01:18:00,
2014-03-08 20:33:00,47.9,30.0,30.05,WNW,288,3.0,13.0,50,0.00,,,0.00,0,weatherlink.com 1.10,2014-03-09 01:33:00,
2014-03-08 20:48:00,47.4,30.0,30.05,WNW,297,9.0,11.0,51,0.00,,,0.00,0,weatherlink.com 1.10,2014-03-09 01:48:00,
2014-03-08 21:03:00,47.6,31.0,30.05,West,273,3.0,8.0,52,0.00,,,0.00,0,weatherlink.com 1.10,2014-03-09 02:03:00,
2014-03-08 21:18:00,47.4,31.0,30.04,West,279,8.0,10.0,53,0.00,,,0.00,0,weatherlink.com 1.10,2014-03-09 02:18:00,
2014-03-08 21:33:00,46.9,30.0,30.05,West,260,4.0,9.0,53,0.00,,,0.00,0,weatherlink.com 1.10,2014-03-09 02:33:00,
2014-03-08 21:48:00,46.7,31.0,30.04,West,270,2.0,8.0,54,0.00,,,0.00,0,weatherlink.com 1.10,2014-03-09 02:48:00,
2014-03-08 22:03:00,46.9,31.0,30.04,WNW,296,3.0,10.0,55,0.00,,,0.00,0,weatherlink.com 1.10,2014-03-09 03:03:00,
2014-03-08 22:18:00,47.0,32.0,30.04,West,270,2.0,14.0,56,0.00,,,0.00,0,weatherlink.com 1.10,2014-03-09 03:18:00,
2014-03-08 22:33:00,46.8,32.0,30.04,WNW,290,3.0,13.0,57,0.00,,,0.00,0,weatherlink.com 1.10,2014-03-09 03:33:00,
2014-03-08 22:48:00,47.1,32.0,30.04,WNW,288,4.0,10.0,56,0.00,,,0.00,0,weatherlink.com 1.10,2014-03-09 03:48:00,
2014-03-08 23:03:00,47.3,32.0,30.04,West,281,5.0,13.0,56,0.00,,,0.00,0,weatherlink.com 1.10,2014-03-09 04:03:00,
2014-03-08 23:18:00,47.9,32.0,30.04,WNW,298,3.0,20.0,54,0.00,,,0.00,0,weatherlink.com 1.10,2014-03-09 04:18:00,
2014-03-08 23:33:00,47.8,31.0,30.04,WSW,256,9.0,17.0,53,0.00,,,0.00,0,weatherlink.com 1.10,2014-03-09 04:33:00,
2014-03-08 23:48:00,47.3,31.0,30.03,NW,320,12.0,12.0,54,0.00,,,0.00,0,weatherlink.com 1.10,2014-03-09 04:48:00,